ADVERTISEMENT

iOS app on App Store Android app on Google Play

2016 \ Turkey Trot Los Angeles - November 24, 2016

Notes Pages Download Filter By
  1 2 3 [4] 5 6 7 8 9 10 11 12 13 14 15 16 17 18 19 20 21 22 23 24 25 26 27 28 29 30




Keyword Exact  
Division

Bib Division Last Name First Name Division Place Total Time Overall City State
3850 30-34 Male Miller Bryan 39 00:26:46 301 Winchester CA
3402 45-49 Male White Chris 14 00:26:47 302 Sioux Falls SD
3849 10-11 Female Miller Jazmyn 2 00:26:48 303 Winchester CA
2602 40-44 Female Latini Keller Vanessa 3 00:26:49 304 Chambesy
630 30-34 Female Soriano Yvonne 20 00:26:49 305
631 30-34 Male Cappadowa J 40 00:26:50 306
1496 20-24 Female Dallmann Kimberly 11 00:26:51 307 Glendale CA
2402 25-29 Male Ortega Jose 28 00:26:52 308
1157 25-29 Male Gonzalez Jose 29 00:26:54 309 Rocklin CA
3762 60-64 Male Biddle Mike 2 00:26:55 310 Walnut Creek CA
868 40-44 Male Robles Anthony 14 00:26:55 311 West Covina CA
1980 14-15 Male Suzuki Cory 17 00:26:56 312 Gardena CA
1979 50-54 Male Suzuki Charlton 7 00:26:56 313 Gardena CA
2308 40-44 Male Fader Sloan 15 00:26:58 314 Culver City CA
124 35-39 Female Costello Lisa 12 00:27:02 315 Lancaster CA
4095 40-44 Male Grush John 16 00:27:02 316 Sherman Oaks CA
3972 20-24 Female Cohen Anne 12 00:27:03 317 Los Angeles CA
2193 40-44 Male Mendoza Mario 17 00:27:04 318 W Los Angeles CA
213 20-24 Male Tisherman Benjamin 20 00:27:07 319 Los Angeles CA
480 25-29 Male Mendoza Carlos 30 00:27:07 320 Los Angeles CA
2230 35-39 Male Mendoza Manuel 23 00:27:07 321 West Los Angeles CA
853 35-39 Male Waldron Jeffrey 24 00:27:09 322 Los Angeles CA
2954 25-29 Male Nguyen Andy 31 00:27:10 323 Westminster CA
1429 35-39 Female Howell Amanda 13 00:27:10 324 Los Angeles CA
2306 35-39 Male Wijesuriya Janake 25 00:27:11 325 Northridge CA
743 35-39 Male Vences Douglas 26 00:27:11 326 El Cajon CA
791 55-59 Male Nakamura William 13 00:27:12 327 Los Angeles CA
1972 20-24 Female Jones Jessica 13 00:27:14 328 Esperance NY
4318 40-44 Male Estrada William 18 00:27:15 329 Los Angeles CA
4016 25-29 Female Ashman Jeanna 19 00:27:18 330 Kingsport TN
668 40-44 Male Paz Carlos 19 00:27:18 331 South Pasadena CA
3698 40-44 Male Halili Jefferson 20 00:27:18 332 Irvine CA
4017 35-39 Male Stover Eric 27 00:27:19 333 Raleigh NC
482 30-34 Male Heavrin Robert 41 00:27:21 334 Louisville KY
1228 35-39 Female Svacha Cassandra 14 00:27:21 335 Astoria NY
1822 20-24 Male Lindgren Samuel 21 00:27:21 336 Walnut Creek CA
1710 20-24 Female Salehsari Parisa 14 00:27:22 337 Los Angeles CA
3667 50-54 Male Dickman Dave 8 00:27:23 338 Santa Monica CA
2471 30-34 Male Kwok Bill 42 00:27:23 339 Alhambra CA
294 60-64 Female Schwartz Elda 2 00:27:25 340 Baltimore MD
1604 20-24 Male Ware Sam 22 00:27:25 341 Van Nuys CA
279 50-54 Female Atlee Elizabeth 7 00:27:26 342 Los Angeles CA
628 60-64 Female Thompson Eloise 3 00:27:26 343 Torrance CA
2457 30-34 Male Eskridge Adam 43 00:27:27 344 Culver City CA
422 30-34 Female Jo Sandra 21 00:27:27 345 Los Angeles CA
2657 25-29 Female Salinas Adriana 20 00:27:27 346 Whittier CA
2853 25-29 Male Balke Dustin 32 00:27:28 347 Whittier CA
3168 35-39 Male Nevils Mark 28 00:27:29 348 Los Angeles CA
298 50-54 Male Tyron Craig 9 00:27:30 349 Los Angeles CA
3181 30-34 Female Nevils Veronica 22 00:27:30 350 Los Angeles CA
2745 16-19 Male Weber Nate 23 00:27:31 351 San Jose CA
2683 60-64 Male Campagna Tom 3 00:27:31 352 Cold Spring Harbor NY
4325 40-44 Male Keller Yves 21 00:27:32 353 Chambesy
1984 30-34 Female Knop Jennifer 23 00:27:32 354 Los Angeles CA
726 20-24 Male Cardenas Antonio 23 00:27:33 355 Los Angeles CA
3451 40-44 Male Stephens Josh 22 00:27:34 356 Los Angeles CA
142 35-39 Male Reynoso Carlos 29 00:27:35 357 Los Angeles CA
3720 12-13 Male Joaquin Leandro 13 00:27:35 358 Los Angeles CA
1934 1-9 Female Uritam Evelyn 1 00:27:36 359 Sf CA
1861 40-44 Male Pandya Jiten 23 00:27:36 360 Downey CA
1933 40-44 Male Kent-uritam Eliot 24 00:27:37 361 San Francisco CA
3799 10-11 Male Abramsonward Tomasso 8 00:27:37 362 Richmond CA
437 60-64 Male Reaser Richard 4 00:27:37 363 El Segundo CA
3945 45-49 Female Trujillo Rena 4 00:27:38 364 Los Angeles CA
347 Age Unknown - Male Unknown 4 00:27:38 365
1788 16-19 Male Mcclure Andrew 24 00:27:39 366 Fullerton CA
1478 1-9 Male Chuchen Eames 3 00:27:40 367 Venice CA
276 45-49 Male Suravech Glenn 15 00:27:41 368 Bellflower CA
2262 25-29 Male Fleming Calvin 33 00:27:42 369 Tempe AZ
963 20-24 Female Astarita Krista 15 00:27:42 370 South Boston MA
3860 40-44 Female Wu Karen 4 00:27:43 371 Rancho Cucamonga CA
3653 20-24 Male Soria Ricardo 24 00:27:44 372 Northridge CA
4369 Age Unknown - Male Unknown 5 00:27:44 373
148 35-39 Female Contreras Jennifer 15 00:27:46 374 Los Angeles CA
1362 25-29 Female Glicker Samantha 21 00:27:47 375 Santa Monica CA
783 30-34 Female Dunmore Jennifer 24 00:27:47 376 Marina Del Rey CA
1106 50-54 Female Garcia Emma 8 00:27:48 377 Whittier CA
1459 45-49 Female Roczey Brenda 5 00:27:48 378 Valencia CA
168 30-34 Female Macklin Alicia 25 00:27:49 379 West Hollywood CA
3940 12-13 Male Chua Marcus 14 00:27:49 380 San Marino CA
944 20-24 Female Maaz Leanna 16 00:27:49 381 La Crescenta CA
2417 50-54 Male Hall James 10 00:27:50 382 Valencia CA
444 30-34 Male Hasty Greg 44 00:27:51 383 Los Angeles CA
1375 25-29 Female Mihalek Alexandra 22 00:27:52 384 Los Angeles CA
4082 35-39 Male Five Case 30 00:27:53 385 Decline CA
3315 25-29 Male Amante Andrew 34 00:27:54 386 Walnut CA
720 40-44 Male Escamilla Ramon 25 00:27:54 387 Yucaipa CA
1247 40-44 Female Padilla Yolanda 5 00:27:54 388 Sherman Oaks CA
221 35-39 Female Parra Kirsty 16 00:27:54 389 Yucaipa CA
4217 40-44 Male Vazquez Leonardo 26 00:27:55 390 Los Angeles CA
116 10-11 Female Acosta Vivian 3 00:27:57 391 Pacoima CA
1902 30-34 Female Noor Fatema 26 00:27:57 392 Reseda CA
3725 30-34 Male Leuchter Dave 45 00:27:59 393 Los Angeles CA
1997 30-34 Female Yu Wei-ning 27 00:28:01 394 Los Angeles CA
1996 25-29 Female Yu Wei-han 23 00:28:01 395 Los Angeles CA
537 40-44 Female Freeman Audrey 6 00:28:01 396 San Pedro CA
1666 45-49 Male Campos Manuel 16 00:28:01 397 Los Angeles CA
2497 30-34 Male Lanning Tighe 46 00:28:02 398 Venice CA
2551 40-44 Female Casas Lorraine 7 00:28:02 399 Downey CA
2914 30-34 Male Sequeira Julio 47 00:28:03 400 Los Angeles CA
Notes Pages Download Filter By
  1 2 3 [4] 5 6 7 8 9 10 11 12 13 14 15




Keyword Exact  
Division

Bib Division Last Name First Name Division Place Chip Overall City State
2950 35-39 Male Rodriguez Julio 39 00:50:09 301 Lake View Terrace CA
2395 35-39 Female Donado Bilda 22 00:50:10 302 Palmdale CA
4185 20-24 Male Qian Bowen 14 00:50:14 303 Santa Monica CA
1101 35-39 Male Pastor Ricardo 40 00:50:14 304 Pacoima CA
773 55-59 Male Miho Bryan 4 00:50:18 305 Rowland Heights CA
2345 45-49 Male Lopez Moises 19 00:50:19 306 Los Angeles CA
2635 50-54 Male Vargas Alfredo 16 00:50:19 307 Los Angeles CA
5114 25-29 Female Luksic Aileen 22 00:50:20 308 Marina Del Rey CA
2246 30-34 Male Brewer David 45 00:50:21 309 Pomona CA
1625 30-34 Female Bedol Jessica 17 00:50:22 310 Los Angeles CA
286 65-69 Female Baumgartner Andrea 1 00:50:22 311 Chicago IL
3734 30-34 Male Calvillo Wil 46 00:50:22 312 Fullerton CA
5150 25-29 Male Alvarez Dominic 37 00:50:25 313 Los Angeles CA
5132 45-49 Female Economou Avalon 3 00:50:27 314 Los Angeles CA
141 25-29 Female Ritzel Taylor 23 00:50:27 315 Los Angeles CA
597 40-44 Male De La Cerda M. Adolpho 19 00:50:28 316 Los Angeles CA
3128 35-39 Female Duchene Stephanie 23 00:50:28 317 La Canada Flintridge CA
4423 40-44 Male Sepanik Brian 20 00:50:31 318 Walnut Creek CA
4040 20-24 Female Winters Lauren 12 00:50:32 319 Los Angeles CA
703 35-39 Male Lau Lawrence 41 00:50:32 320 Sherman Oaks CA
729 40-44 Male Almader Fernando 21 00:50:35 321 Los Angeles CA
618 30-34 Male Tenorio Miguel 47 00:50:38 322 Los Angeles CA
3333 20-24 Male Grant Ian 15 00:50:39 323 Los Angeles CA
2453 25-29 Male Bunyi Noah 38 00:50:40 324 Gardena CA
641 45-49 Male Moore Torrence 20 00:50:40 325 South Holland IL
763 50-54 Female Hollingshead Andrea 2 00:50:43 326 Los Angeles CA
5129 35-39 Male Bui Chuong 42 00:50:44 327 Los Angeles CA
4441 30-34 Male Dorsey Stewart 48 00:50:50 328 San Francisco CA
5085 30-34 Female Stenseth Bethann 18 00:50:52 329 San Francisco CA
3315 25-29 Male Amante Andrew 39 00:50:53 330 Walnut CA
3748 25-29 Female Gallegos Veronica 24 00:50:53 331 Los Angeles CA
5086 35-39 Male Wagner Kaare 43 00:50:54 332 Santa Monica CA
1414 45-49 Male Edwards Gary 21 00:50:54 333 Los Angeles CA
3096 30-34 Male Sabino Jonah 49 00:50:55 334 Hercules CA
3253 45-49 Male Kubota Eugene 22 00:50:56 335 Los Angeles CA
613 Age Unknown - Male Unknown 7 00:50:59 336
2615 35-39 Male Bethea Brandon 44 00:51:00 337 Marina Del Rey CA
3803 40-44 Male Ramos Tony 22 00:51:04 338 Covina CA
2187 20-24 Female Villaran Becca 13 00:51:04 339 Huntington Beach CA
3440 40-44 Male Grigorov Denis 23 00:51:04 340 Van Nuys CA
1148 35-39 Male Sanchez Morris 45 00:51:05 341 Burbank CA
1965 60-64 Female Hillier Mary Anne 3 00:51:08 342 Los Angeles CA
2296 35-39 Male Lopez Eric 46 00:51:09 343 El Monte CA
572 40-44 Female Soto Adrian 5 00:51:10 344 Los Angeles CA
3299 25-29 Male Perez Hugo 40 00:51:12 345 Santa Ana CA
2275 50-54 Male Mahlebashian Robert 17 00:51:13 346 Los Angeles CA
2085 25-29 Male Joseph Jorel 41 00:51:19 347 Los Angeles CA
3360 35-39 Female Barcellos Teresa 24 00:51:19 348 Los Angeles CA
855 40-44 Male Hensley Craig 24 00:51:21 349 Long Beach CA
3147 40-44 Male Dembowski Anton 25 00:51:24 350 Los Angeles CA
4474 40-44 Male Castellanos Roberto 26 00:51:28 351 Los Angeles CA
552 25-29 Female Kessler Melanie 25 00:51:29 352 Rotkreuz
3435 50-54 Male Ryan Martin 18 00:51:31 353 Los Angeles CA
1207 30-34 Male Barrera Randy 50 00:51:35 354 Los Angeles CA
2729 30-34 Male Jacob Thomas 51 00:51:40 355 Los Angeles CA
1105 25-29 Female Cisneros Sandra 26 00:51:41 356 San Diego CA
3452 25-29 Male Lopez Ricardo 42 00:51:42 357 Victorville CA
1718 30-34 Female Chang Kevin 19 00:51:42 358 Woodland Hills CA
2188 45-49 Male Beltran Jorge 23 00:51:47 359 Los Angeles CA
4272 25-29 Female Kilpatrick Leah 27 00:51:47 360 Santa Monica CA
3279 30-34 Male Mateo Curtis 52 00:51:48 361 Rowland Heights CA
2011 20-24 Male Tasher Tyrin 16 00:51:51 362 Los Angeles CA
1967 30-34 Male Balangue Ian 53 00:51:51 363 La Habra CA
5066 40-44 Female Bruns Azalea 6 00:51:55 364 Los Angeles CA
1674 30-34 Male Swiker John 54 00:51:58 365 North Hollywood CA
4419 40-44 Female Jimenez Jennifer 7 00:51:59 366 Walnut Creek CA
1558 30-34 Male Rauf Raziq 55 00:52:00 367 Los Angeles CA
1359 30-34 Female Alcazar Mireya 20 00:52:00 368 Glendale CA
1360 40-44 Male Alcazar Victor 27 00:52:01 369 Long Beach CA
1388 35-39 Female Busch Krystle 25 00:52:01 370 Los Angeles CA
3192 30-34 Female Dufford Michelle 21 00:52:02 371 Park City UT
1467 40-44 Male Sipes Austin 28 00:52:03 372 Santa Monica CA
1134 35-39 Female Alvarado Loyda 26 00:52:03 373 Alhambra CA
573 40-44 Female Soto Adrian 8 00:52:04 374 Los Angeles CA
3255 25-29 Female Pena Veronica 28 00:52:04 375 Sunland CA
5040 35-39 Female Toledo April 27 00:52:07 376 Valley Village CA
3257 25-29 Male Pliego Javier 43 00:52:07 377 Montrose CA
3204 25-29 Female Hickam Jessica 29 00:52:12 378 Inglewood CA
5065 50-54 Male Stackpoole Roger 19 00:52:14 379 Falls Church VA
4186 30-34 Female Hill Cathee 22 00:52:15 380 Monrovia CA
5064 25-29 Female Stackpoole Brittany 30 00:52:15 381 Falls Church VA
2698 45-49 Male Martinez Joel 24 00:52:16 382 Montebello CA
3499 25-29 Male Dessertenne Pierre 44 00:52:17 383 San Francisco CA
1730 14-15 Female Rodriguez Andrea 1 00:52:17 384 Azusa CA
3175 20-24 Female Gallegos Daniela 14 00:52:20 385 Los Angeles CA
334 20-24 Male Teng Jason 17 00:52:22 386 Los Angeles CA
1095 30-34 Female Bozinoski Stefanie 23 00:52:23 387 Rochester Hills MI
341 35-39 Female Lopez Adriana 28 00:52:24 388 Rockville MD
2973 60-64 Male Mitchell Craig 6 00:52:28 389 Los Angeles CA
1115 30-34 Female Flores Amelia 24 00:52:30 390 Los Angeles CA
1805 35-39 Male Devera Anthony 47 00:52:31 391 North Hills CA
1135 35-39 Male Jimenez Sergio 48 00:52:32 392 Culver City CA
3727 25-29 Female Joskowitz Lauren 31 00:52:32 393 Los Angeles CA
5013 35-39 Male Uyeno Sam 49 00:52:33 394 Los Angeles CA
2928 25-29 Male Tsukahira Kyle 45 00:52:34 395 Temple City CA
3532 35-39 Male Drozdz Bartlomiej 50 00:52:34 396 Santa Monica CA
3985 40-44 Female Korsh Kate 9 00:52:34 397 Los Angeles CA
2184 45-49 Female Bowman Leslie 4 00:52:38 398 Huntington Beach CA
2974 25-29 Female Garcia Marlene 32 00:52:39 399 Sylmar CA
819 45-49 Female Chernansky Diane 5 00:52:41 400 Los Angeles CA